createdAt,value
2017-07-17T00:01:07.845Z,19.68
2017-07-17T00:03:36.195Z,19.58
2017-07-17T00:06:05.129Z,19.44
2017-07-17T00:08:33.464Z,19.39
2017-07-17T00:11:01.809Z,19.40
2017-07-17T00:13:30.411Z,19.39
2017-07-17T00:15:58.744Z,19.42
2017-07-17T00:18:27.108Z,19.46
2017-07-17T00:20:55.789Z,19.31
2017-07-17T00:23:24.138Z,19.34
2017-07-17T00:25:52.458Z,19.18
2017-07-17T00:28:21.461Z,19.18
2017-07-17T00:30:49.783Z,19.15
2017-07-17T00:33:18.119Z,19.11
2017-07-17T00:35:46.896Z,19.17
2017-07-17T00:38:15.268Z,19.12
2017-07-17T00:40:43.579Z,19.08
2017-07-17T00:43:12.197Z,18.98
2017-07-17T00:45:40.528Z,18.86
2017-07-17T00:48:08.867Z,18.83
2017-07-17T00:50:37.719Z,18.93
2017-07-17T00:53:06.041Z,19.04
2017-07-17T00:55:34.363Z,19.06
2017-07-17T00:58:03.230Z,18.93
2017-07-17T01:00:31.551Z,18.78
2017-07-17T01:02:59.868Z,18.79
2017-07-17T01:05:28.505Z,18.83
2017-07-17T01:07:56.829Z,18.88
2017-07-17T01:10:25.946Z,18.83
2017-07-17T01:12:54.921Z,18.92
2017-07-17T01:15:23.245Z,18.93
2017-07-17T01:17:51.575Z,18.90
2017-07-17T01:20:20.395Z,18.96
2017-07-17T01:22:48.726Z,18.99
2017-07-17T01:25:17.077Z,18.88
2017-07-17T01:27:45.676Z,18.88
2017-07-17T01:30:13.992Z,18.71
2017-07-17T01:32:43.107Z,18.69
2017-07-17T01:35:11.886Z,18.68
2017-07-17T01:37:40.224Z,18.65
2017-07-17T01:40:08.562Z,18.51
2017-07-17T01:42:37.181Z,18.64
2017-07-17T01:45:05.518Z,18.51
2017-07-17T01:47:33.855Z,18.53
2017-07-17T01:50:02.785Z,18.61
2017-07-17T01:52:31.140Z,18.59
2017-07-17T01:55:00.232Z,18.64
2017-07-17T01:57:29.374Z,18.61
2017-07-17T01:59:57.719Z,18.55
2017-07-17T02:02:26.050Z,18.48
2017-07-17T02:04:54.721Z,18.47
2017-07-17T02:07:23.051Z,18.51
2017-07-17T02:09:52.160Z,18.54
2017-07-17T02:12:20.822Z,18.45
2017-07-17T02:14:49.171Z,18.41
2017-07-17T02:17:17.523Z,18.40
2017-07-17T02:19:46.320Z,18.33
2017-07-17T02:22:14.660Z,18.44
2017-07-17T02:24:43.002Z,18.38
2017-07-17T02:27:11.858Z,18.17
2017-07-17T02:29:40.198Z,18.25
2017-07-17T02:32:08.547Z,18.07
2017-07-17T02:34:37.292Z,18.01
2017-07-17T02:37:05.648Z,18.08
2017-07-17T02:39:33.976Z,18.02
2017-07-17T02:42:02.942Z,17.98
2017-07-17T02:44:31.261Z,17.96
2017-07-17T02:46:59.599Z,17.88
2017-07-17T02:49:29.073Z,17.88
2017-07-17T02:51:58.283Z,17.84
2017-07-17T02:54:26.616Z,17.78
2017-07-17T02:56:55.246Z,17.80
2017-07-17T02:59:23.583Z,17.66
2017-07-17T03:01:51.931Z,17.68
2017-07-17T03:04:20.924Z,17.66
2017-07-17T03:06:49.260Z,17.56
2017-07-17T03:09:17.597Z,17.64
2017-07-17T03:11:46.364Z,17.66
2017-07-17T03:14:14.706Z,17.40
2017-07-17T03:16:43.055Z,17.41
2017-07-17T03:19:11.815Z,17.54
2017-07-17T03:21:40.160Z,17.70
2017-07-17T03:24:16.714Z,17.60
2017-07-17T03:26:45.044Z,17.60
2017-07-17T03:29:13.379Z,17.60
2017-07-17T03:31:42.194Z,17.62
2017-07-17T03:34:10.513Z,17.57
2017-07-17T03:36:38.886Z,17.72
2017-07-17T03:39:07.842Z,17.79
2017-07-17T03:41:36.165Z,17.71
2017-07-17T03:44:04.497Z,17.82
2017-07-17T03:46:34.310Z,17.82
2017-07-17T03:49:02.655Z,17.89
2017-07-17T03:51:30.988Z,17.83
2017-07-17T03:53:59.617Z,17.77
2017-07-17T03:56:27.973Z,17.75
2017-07-17T03:58:56.305Z,17.67
2017-07-17T04:01:24.961Z,17.61
2017-07-17T04:03:53.305Z,17.72
2017-07-17T04:06:22.003Z,17.31
2017-07-17T04:08:50.869Z,17.68
2017-07-17T04:11:19.219Z,17.89
2017-07-17T04:13:47.604Z,17.93
2017-07-17T04:16:16.506Z,18.09
2017-07-17T04:18:44.834Z,18.15
2017-07-17T04:21:13.221Z,18.06
2017-07-17T04:23:41.969Z,18.13
2017-07-17T04:26:10.305Z,18.30
2017-07-17T04:28:38.649Z,18.37
2017-07-17T04:31:07.818Z,18.17
2017-07-17T04:33:36.144Z,18.31
2017-07-17T04:36:04.495Z,18.50
2017-07-17T04:38:33.155Z,18.45
2017-07-17T04:41:02.267Z,18.55
2017-07-17T04:43:30.587Z,18.67
2017-07-17T04:45:59.367Z,18.70
2017-07-17T04:48:27.715Z,18.75
2017-07-17T04:50:56.049Z,18.86
2017-07-17T04:53:24.913Z,19.03
2017-07-17T04:55:53.260Z,18.97
2017-07-17T04:58:21.586Z,18.90
2017-07-17T05:00:50.409Z,18.93
2017-07-17T05:03:18.751Z,19.30
2017-07-17T05:05:47.092Z,19.39
2017-07-17T05:08:15.750Z,19.14
2017-07-17T05:10:45.230Z,19.22
2017-07-17T05:13:13.567Z,19.36
2017-07-17T05:15:42.541Z,19.26
2017-07-17T05:18:10.878Z,19.34
2017-07-17T05:20:39.204Z,19.40
2017-07-17T05:23:07.836Z,19.13
2017-07-17T05:25:36.182Z,19.16
2017-07-17T05:28:04.519Z,19.09
2017-07-17T05:30:33.410Z,19.32
2017-07-17T05:33:01.748Z,19.58
2017-07-17T05:35:30.108Z,19.83
2017-07-17T05:37:58.877Z,19.84
2017-07-17T05:40:27.223Z,19.73
2017-07-17T05:42:55.575Z,19.86
2017-07-17T05:45:24.246Z,19.94
2017-07-17T05:47:52.590Z,20.02
2017-07-17T05:50:20.958Z,19.97
2017-07-17T05:52:50.579Z,19.96
2017-07-17T05:55:18.925Z,19.97
2017-07-17T05:57:47.264Z,20.12
2017-07-17T06:00:16.425Z,20.23
2017-07-17T06:02:44.799Z,20.47
2017-07-17T06:05:13.913Z,20.36
2017-07-17T06:07:42.672Z,20.47
2017-07-17T06:10:11.032Z,20.59
2017-07-17T06:12:39.974Z,20.68
2017-07-17T06:15:08.609Z,20.98
2017-07-17T06:17:36.949Z,20.57
2017-07-17T06:20:05.302Z,20.71
2017-07-17T06:22:34.258Z,20.89
2017-07-17T06:25:02.593Z,20.76
2017-07-17T06:27:30.949Z,20.74
2017-07-17T06:29:59.847Z,21.00
2017-07-17T06:32:28.208Z,21.30
2017-07-17T06:34:56.557Z,20.99
2017-07-17T06:37:25.203Z,20.79
2017-07-17T06:39:53.539Z,20.98
2017-07-17T06:42:21.905Z,21.16
2017-07-17T06:44:50.747Z,21.29
2017-07-17T06:47:19.093Z,21.47
2017-07-17T06:49:47.427Z,21.41
2017-07-17T06:52:16.097Z,21.49
2017-07-17T06:54:44.439Z,21.59
2017-07-17T06:57:12.760Z,21.94
2017-07-17T06:59:41.425Z,22.55
2017-07-17T07:02:09.746Z,22.58
2017-07-17T07:04:38.049Z,22.62
2017-07-17T07:07:07.087Z,22.79
2017-07-17T07:09:35.421Z,22.88
2017-07-17T07:12:03.759Z,22.76
2017-07-17T07:14:32.767Z,23.08
2017-07-17T07:17:01.109Z,23.32
2017-07-17T07:19:30.202Z,23.39
2017-07-17T07:21:59.618Z,23.65
2017-07-17T07:24:27.990Z,23.22
2017-07-17T07:26:57.135Z,23.48
2017-07-17T07:29:25.943Z,23.70
2017-07-17T07:31:54.290Z,23.80
2017-07-17T07:34:22.617Z,23.60
2017-07-17T07:36:51.561Z,23.72
2017-07-17T07:39:19.887Z,23.65
2017-07-17T07:41:48.987Z,23.55
2017-07-17T07:44:18.608Z,23.64
2017-07-17T07:46:46.956Z,23.99
2017-07-17T07:49:15.277Z,23.97
2017-07-17T07:51:44.411Z,24.03
2017-07-17T07:54:12.745Z,23.81
2017-07-17T07:56:41.103Z,24.20
2017-07-17T07:59:10.530Z,24.43
2017-07-17T08:01:38.860Z,24.29
2017-07-17T08:04:07.211Z,23.98
2017-07-17T08:06:35.973Z,23.32
2017-07-17T08:09:04.316Z,23.38
2017-07-17T08:11:32.661Z,23.48
2017-07-17T08:14:01.697Z,23.44
2017-07-17T08:16:30.040Z,23.56
2017-07-17T08:18:58.382Z,23.81
2017-07-17T08:21:27.268Z,23.79
2017-07-17T08:23:55.610Z,23.92
2017-07-17T08:26:23.955Z,24.13
2017-07-17T08:28:52.611Z,24.36
2017-07-17T08:31:20.945Z,24.64
2017-07-17T08:33:49.288Z,24.94
2017-07-17T08:36:18.151Z,25.24
2017-07-17T08:38:46.502Z,25.18
2017-07-17T08:41:14.835Z,24.78
2017-07-17T08:43:43.512Z,24.73
2017-07-17T08:46:11.842Z,25.04
2017-07-17T08:48:40.168Z,24.82
2017-07-17T08:51:09.053Z,24.82
2017-07-17T08:53:37.389Z,25.10
2017-07-17T08:56:05.718Z,25.15
2017-07-17T08:58:34.890Z,25.26
2017-07-17T09:01:03.230Z,25.74
2017-07-17T09:03:31.565Z,25.95
2017-07-17T09:06:00.357Z,25.85
2017-07-17T09:08:28.700Z,25.49
2017-07-17T09:10:57.062Z,25.86
2017-07-17T09:13:25.734Z,26.06
2017-07-17T09:15:54.079Z,26.03
2017-07-17T09:18:22.409Z,25.97
2017-07-17T09:20:51.395Z,25.71
2017-07-17T09:23:19.737Z,25.61
2017-07-17T09:25:48.076Z,25.60
2017-07-17T09:28:16.901Z,25.32
2017-07-17T09:30:45.233Z,25.69
2017-07-17T09:33:13.592Z,25.77
2017-07-17T09:35:42.222Z,25.93
2017-07-17T09:38:10.563Z,26.18
2017-07-17T09:40:38.924Z,26.30
2017-07-17T09:43:07.983Z,26.21
2017-07-17T09:45:36.330Z,26.19
2017-07-17T09:48:04.656Z,25.97
2017-07-17T09:50:33.434Z,25.57
2017-07-17T09:53:01.759Z,25.85
2017-07-17T09:55:30.158Z,26.00
2017-07-17T09:57:58.935Z,26.24
2017-07-17T10:00:27.240Z,26.72
2017-07-17T10:02:56.350Z,26.97
2017-07-17T10:05:25.334Z,27.24
2017-07-17T10:07:53.676Z,27.62
2017-07-17T10:10:22.010Z,27.61
2017-07-17T10:12:50.772Z,27.17
2017-07-17T10:15:19.118Z,27.03
2017-07-17T10:17:47.437Z,27.34
2017-07-17T10:20:16.130Z,27.61
2017-07-17T10:22:45.233Z,27.68
2017-07-17T10:25:14.342Z,27.77
2017-07-17T10:27:43.316Z,27.89
2017-07-17T10:30:11.643Z,27.47
2017-07-17T10:32:39.976Z,27.60
2017-07-17T10:35:08.671Z,27.47
2017-07-17T10:37:37.047Z,27.63
2017-07-17T10:40:05.391Z,27.90
2017-07-17T10:42:33.995Z,27.72
2017-07-17T10:45:02.329Z,27.49
2017-07-17T10:47:30.661Z,27.75
2017-07-17T10:49:59.639Z,27.41
2017-07-17T10:52:27.987Z,27.82
2017-07-17T10:54:56.341Z,28.23
2017-07-17T10:57:25.002Z,28.44
2017-07-17T10:59:53.348Z,28.63
2017-07-17T11:02:21.692Z,28.82
2017-07-17T11:04:50.543Z,28.57
2017-07-17T11:07:18.890Z,28.55
2017-07-17T11:09:47.235Z,28.77
2017-07-17T11:12:15.914Z,29.08
2017-07-17T11:14:44.233Z,29.39
2017-07-17T11:17:12.578Z,28.79
2017-07-17T11:19:41.225Z,29.23
2017-07-17T11:22:09.579Z,29.69
2017-07-17T11:24:37.930Z,29.62
2017-07-17T11:27:06.669Z,29.81
2017-07-17T11:29:35.008Z,29.59
2017-07-17T11:32:03.324Z,29.76
2017-07-17T11:34:32.840Z,29.15
2017-07-17T11:37:01.184Z,29.35
2017-07-17T11:39:29.507Z,29.66
2017-07-17T11:41:58.372Z,29.30
2017-07-17T11:44:26.714Z,29.32
2017-07-17T11:57:09.923Z,31.10
2017-07-17T11:59:38.858Z,30.81
2017-07-17T12:02:07.189Z,30.59
2017-07-17T12:04:35.527Z,30.59
2017-07-17T12:07:04.299Z,30.86
2017-07-17T12:09:32.648Z,30.93
2017-07-17T12:12:01.005Z,31.12
2017-07-17T12:14:30.158Z,31.18
2017-07-17T12:16:58.579Z,30.82
2017-07-17T12:19:26.930Z,30.77
2017-07-17T12:21:55.814Z,30.36
2017-07-17T12:24:24.133Z,30.10
2017-07-17T12:26:52.486Z,29.93
2017-07-17T12:29:21.429Z,29.91
2017-07-17T12:31:49.767Z,30.04
2017-07-17T12:34:18.107Z,30.34
2017-07-17T12:36:47.320Z,29.99
2017-07-17T12:39:15.659Z,30.03
2017-07-17T12:41:44.014Z,30.09
2017-07-17T12:44:12.761Z,30.01
2017-07-17T12:46:41.110Z,29.93
2017-07-17T12:49:09.472Z,29.56
2017-07-17T12:51:38.414Z,29.41
2017-07-17T12:54:06.746Z,29.33
2017-07-17T12:56:35.077Z,29.62
2017-07-17T12:59:05.294Z,29.82
2017-07-17T13:01:33.648Z,30.14
2017-07-17T13:04:02.766Z,29.94
2017-07-17T13:06:31.436Z,29.37
2017-07-17T13:08:59.808Z,29.13
2017-07-17T13:11:28.153Z,28.85
2017-07-17T13:13:56.788Z,28.97
2017-07-17T13:16:25.111Z,28.82
2017-07-17T13:18:53.460Z,28.91
2017-07-17T13:21:22.644Z,29.48
2017-07-17T13:23:50.986Z,29.63
2017-07-17T13:26:19.339Z,29.50
2017-07-17T13:28:48.086Z,29.41
2017-07-17T13:31:16.413Z,29.63
2017-07-17T13:33:44.742Z,29.21
2017-07-17T13:36:14.396Z,29.04
2017-07-17T13:38:42.768Z,28.95
2017-07-17T13:41:11.153Z,28.86
2017-07-17T13:43:40.001Z,29.18
2017-07-17T13:46:08.358Z,29.28
2017-07-17T13:48:36.704Z,29.06
2017-07-17T13:51:05.452Z,28.71
2017-07-17T13:53:33.796Z,28.44
2017-07-17T13:56:02.160Z,28.32
2017-07-17T13:58:30.893Z,28.14
2017-07-17T14:00:59.259Z,28.40
2017-07-17T14:03:28.353Z,28.70
2017-07-17T14:05:58.161Z,28.92
2017-07-17T14:08:26.505Z,28.85
2017-07-17T14:10:54.854Z,28.41
2017-07-17T14:13:23.632Z,28.53
2017-07-17T14:15:51.968Z,28.73
2017-07-17T14:18:20.330Z,29.02
2017-07-17T14:20:49.075Z,28.96
2017-07-17T14:23:17.415Z,28.56
2017-07-17T14:25:45.785Z,28.60
2017-07-17T14:28:15.123Z,28.61
2017-07-17T14:30:43.465Z,28.49
2017-07-17T14:33:11.862Z,28.66
2017-07-17T14:35:40.677Z,29.10
2017-07-17T14:38:09.016Z,29.00
2017-07-17T14:40:37.383Z,28.85
2017-07-17T14:43:06.000Z,28.60
2017-07-17T14:45:34.343Z,28.48
2017-07-17T14:48:02.669Z,28.60
2017-07-17T14:50:32.486Z,28.78
2017-07-17T14:53:00.839Z,28.63
2017-07-17T14:55:29.170Z,28.53
2017-07-17T14:57:57.809Z,28.72
2017-07-17T15:00:26.938Z,28.86
2017-07-17T15:02:55.281Z,28.73
2017-07-17T15:05:24.228Z,28.49
2017-07-17T15:07:52.596Z,28.14
2017-07-17T15:10:20.960Z,27.66
2017-07-17T15:12:50.088Z,27.75
2017-07-17T15:15:18.409Z,27.81
2017-07-17T15:17:46.732Z,27.74
2017-07-17T15:20:15.694Z,27.83
2017-07-17T15:22:44.030Z,27.94
2017-07-17T15:25:12.385Z,27.88
2017-07-17T15:27:41.031Z,27.50
2017-07-17T15:30:10.139Z,27.53
2017-07-17T15:32:38.485Z,27.60
2017-07-17T15:35:07.621Z,27.86
2017-07-17T15:37:35.988Z,27.47
2017-07-17T15:40:04.381Z,27.18
2017-07-17T15:42:33.137Z,27.46
2017-07-17T15:45:02.261Z,27.56
2017-07-17T15:47:30.610Z,27.49
2017-07-17T15:49:59.290Z,27.50
2017-07-17T15:52:27.632Z,27.50
2017-07-17T15:54:55.975Z,27.81
2017-07-17T15:57:25.450Z,27.81
2017-07-17T15:59:53.800Z,27.79
2017-07-17T16:02:22.150Z,27.51
2017-07-17T16:04:51.149Z,27.30
2017-07-17T16:07:19.511Z,27.19
2017-07-17T16:09:47.869Z,27.28
2017-07-17T16:12:16.678Z,27.13
2017-07-17T16:14:45.053Z,27.20
2017-07-17T16:17:13.391Z,27.31
2017-07-17T16:19:42.534Z,27.24
2017-07-17T16:22:10.873Z,27.18
2017-07-17T16:24:39.210Z,27.24
2017-07-17T16:27:07.891Z,27.12
2017-07-17T16:29:36.244Z,27.32
2017-07-17T16:32:04.580Z,27.37
2017-07-17T16:34:33.428Z,27.25
2017-07-17T16:37:01.775Z,26.90
2017-07-17T16:39:30.133Z,26.76
2017-07-17T16:41:59.127Z,26.67
2017-07-17T16:44:27.488Z,26.92
2017-07-17T16:46:55.840Z,26.77
2017-07-17T16:49:24.521Z,26.70
2017-07-17T16:51:52.951Z,26.69
2017-07-17T16:54:21.298Z,26.87
2017-07-17T16:56:50.167Z,26.86
2017-07-17T16:59:18.499Z,26.61
2017-07-17T17:01:46.825Z,26.64
2017-07-17T17:04:16.652Z,26.70
2017-07-17T17:06:45.005Z,26.54
2017-07-17T17:09:14.114Z,26.44
2017-07-17T17:11:43.600Z,26.51
2017-07-17T17:14:12.734Z,26.49
2017-07-17T17:16:41.106Z,26.28
2017-07-17T17:19:10.008Z,26.16
2017-07-17T17:21:38.347Z,25.95
2017-07-17T17:24:06.685Z,25.80
2017-07-17T17:26:35.781Z,25.89
2017-07-17T17:29:04.156Z,25.73
2017-07-17T17:31:32.509Z,25.53
2017-07-17T17:34:01.127Z,25.71
2017-07-17T17:36:29.465Z,25.63
2017-07-17T17:38:58.551Z,25.64
2017-07-17T17:41:27.167Z,25.67
2017-07-17T17:43:55.535Z,25.75
2017-07-17T17:46:23.892Z,25.82
2017-07-17T17:48:52.987Z,25.77
2017-07-17T17:51:21.340Z,25.60
2017-07-17T17:53:49.795Z,25.70
2017-07-17T17:56:18.424Z,25.82
2017-07-17T17:58:46.789Z,25.76
2017-07-17T18:01:15.142Z,25.62
2017-07-17T18:03:43.999Z,25.42
2017-07-17T18:06:12.342Z,25.45
2017-07-17T18:08:40.678Z,25.30
2017-07-17T18:11:09.527Z,25.21
2017-07-17T18:13:37.870Z,24.95
2017-07-17T18:16:06.241Z,24.97
2017-07-17T18:18:34.918Z,24.97
2017-07-17T18:21:03.275Z,24.89
2017-07-17T18:23:31.620Z,24.72
2017-07-17T18:26:00.442Z,24.46
2017-07-17T18:28:28.783Z,24.52
2017-07-17T18:30:57.125Z,24.50
2017-07-17T18:33:26.165Z,24.50
2017-07-17T18:35:55.275Z,24.41
2017-07-17T18:38:24.401Z,24.44
2017-07-17T18:40:53.019Z,24.28
2017-07-17T18:43:21.362Z,24.19
2017-07-17T18:45:49.710Z,24.26
2017-07-17T18:48:18.621Z,24.21
2017-07-17T18:50:46.956Z,24.04
2017-07-17T18:53:15.306Z,24.05
2017-07-17T18:55:44.464Z,24.06
2017-07-17T18:58:12.811Z,23.93
2017-07-17T19:00:41.151Z,23.76
2017-07-17T19:03:09.883Z,23.72
2017-07-17T19:05:38.219Z,23.66
2017-07-17T19:08:06.547Z,23.60
2017-07-17T19:10:35.940Z,23.52
2017-07-17T19:13:04.318Z,23.62
2017-07-17T19:15:33.426Z,23.54
2017-07-17T19:18:03.259Z,23.36
2017-07-17T19:20:31.597Z,23.33
2017-07-17T19:22:59.977Z,23.41
2017-07-17T19:25:28.828Z,23.43
2017-07-17T19:27:57.173Z,23.41
2017-07-17T19:30:25.516Z,23.34
2017-07-17T19:32:54.366Z,23.00
2017-07-17T19:35:22.699Z,23.04
2017-07-17T19:37:51.044Z,22.97
2017-07-17T19:40:19.865Z,22.95
2017-07-17T19:42:48.214Z,22.78
2017-07-17T19:45:16.567Z,22.94
2017-07-17T19:47:45.447Z,22.82
2017-07-17T19:50:13.781Z,22.70
2017-07-17T19:52:42.113Z,22.50
2017-07-17T19:55:10.740Z,22.36
2017-07-17T19:57:39.097Z,22.34
2017-07-17T20:00:07.489Z,22.28
2017-07-17T20:02:36.381Z,22.26
2017-07-17T20:05:04.718Z,22.18
2017-07-17T20:07:33.045Z,22.14
2017-07-17T20:10:01.738Z,22.19
2017-07-17T20:12:30.074Z,22.10
2017-07-17T20:14:58.416Z,22.00
2017-07-17T20:17:28.058Z,22.06
2017-07-17T20:19:56.418Z,21.95
2017-07-17T20:22:25.548Z,21.90
2017-07-17T20:24:54.515Z,21.78
2017-07-17T20:27:22.847Z,21.57
2017-07-17T20:29:51.175Z,21.54
2017-07-17T20:32:20.200Z,21.41
2017-07-17T20:34:48.553Z,21.44
2017-07-17T20:37:16.902Z,21.48
2017-07-17T20:39:45.554Z,21.53
2017-07-17T20:42:13.893Z,21.42
2017-07-17T20:44:42.246Z,21.38
2017-07-17T20:47:12.071Z,21.34
2017-07-17T20:49:40.419Z,21.26
2017-07-17T20:52:08.780Z,21.23
2017-07-17T20:54:37.729Z,21.20
2017-07-17T20:57:06.139Z,21.33
2017-07-17T20:59:34.483Z,21.24
2017-07-17T21:02:03.176Z,21.18
2017-07-17T21:04:31.537Z,21.20
2017-07-17T21:06:59.906Z,21.17
2017-07-17T21:09:28.657Z,21.09
2017-07-17T21:11:57.027Z,21.26
2017-07-17T21:14:25.391Z,21.21
2017-07-17T21:16:54.341Z,21.20
2017-07-17T21:19:22.688Z,21.16
2017-07-17T21:21:51.022Z,21.19
2017-07-17T21:24:19.727Z,21.05
2017-07-17T21:26:48.087Z,20.89
2017-07-17T21:29:16.442Z,20.88
2017-07-17T21:31:45.244Z,20.84
2017-07-17T21:34:14.339Z,20.83
2017-07-17T21:36:43.429Z,20.85
2017-07-17T21:39:12.255Z,20.67
2017-07-17T21:41:40.591Z,20.66
2017-07-17T21:44:08.954Z,20.43
2017-07-17T21:46:37.888Z,20.41
2017-07-17T21:49:06.240Z,20.40
2017-07-17T21:51:34.578Z,20.33
2017-07-17T21:54:03.354Z,20.35
2017-07-17T21:56:31.711Z,20.34
2017-07-17T21:59:00.808Z,20.41
2017-07-17T22:01:30.214Z,20.37
2017-07-17T22:03:58.558Z,20.25
2017-07-17T22:06:26.907Z,20.25
2017-07-17T22:08:55.676Z,20.32
2017-07-17T22:11:24.025Z,20.31
2017-07-17T22:13:53.154Z,20.23
2017-07-17T22:16:21.888Z,20.21
2017-07-17T22:18:50.230Z,20.12
2017-07-17T22:21:18.583Z,20.02
2017-07-17T22:23:47.378Z,20.06
2017-07-17T22:26:15.710Z,19.82
2017-07-17T22:28:44.053Z,19.90
2017-07-17T22:31:12.917Z,19.86
2017-07-17T22:33:41.272Z,19.84
2017-07-17T22:36:09.626Z,19.79
2017-07-17T22:38:38.662Z,19.80
2017-07-17T22:41:07.014Z,19.68
2017-07-17T22:43:35.373Z,19.53
2017-07-17T22:46:04.315Z,19.61
2017-07-17T22:48:32.674Z,19.61
2017-07-17T22:51:01.787Z,19.48
2017-07-17T22:53:30.446Z,19.59
2017-07-17T22:55:58.791Z,19.59
2017-07-17T22:58:27.170Z,19.54
2017-07-17T23:00:56.270Z,19.49
2017-07-17T23:03:24.607Z,19.36
2017-07-17T23:05:53.711Z,19.10
2017-07-17T23:08:23.319Z,19.18
2017-07-17T23:10:51.658Z,19.25
2017-07-17T23:13:19.987Z,19.18
2017-07-17T23:15:48.772Z,19.14
2017-07-17T23:18:17.107Z,19.24
2017-07-17T23:20:45.451Z,19.09
2017-07-17T23:23:14.364Z,19.18
2017-07-17T23:25:42.693Z,19.06
2017-07-17T23:28:11.037Z,19.10
2017-07-17T23:30:39.862Z,19.00
2017-07-17T23:33:08.199Z,18.86
2017-07-17T23:35:36.550Z,18.78
2017-07-17T23:38:05.243Z,18.90
2017-07-17T23:40:33.586Z,18.83
2017-07-17T23:43:01.927Z,18.77
2017-07-17T23:45:30.748Z,18.62
2017-07-17T23:47:59.084Z,18.43
2017-07-17T23:50:27.450Z,18.46
2017-07-17T23:52:56.128Z,18.45
2017-07-17T23:55:24.458Z,18.35
2017-07-17T23:57:52.803Z,18.19
